Terminal Aerodrome Forecast
Issued by NWS La Crosse, WI

Home | Current Version | Previous Version | Text Only | Print | Product List | Glossary On
Versions: 1 2 3 4 5 6 7 8 9 10 11 12 13 14 15 16 17 18 19 20 21 22
000
FTUS43 KARX 192320
TAFRST
TAF
KRST 192320Z 2000/2024 15012G20KT P6SM FEW100 SCT250
     FM200500 16017KT P6SM SCT100 BKN200 WS015/17050KT
     FM201000 16017KT P6SM BKN080 WS020/19045KT
     FM201300 20012KT P6SM SCT008 BKN015
     FM201700 27010KT P6SM SCT045=

USA.gov is the U.S. government's official web portal to all federal, state and local government web resources and services.